logo
Search for airport 
image banner adimage banner adimage banner ad
image banner ad

FQNP - Nampula / National

Located in Nampula, Mozambique

ICAO - FQNP, IATA - APL

Data provided by Airmate  

General information

Coordinates: S15°6'11" E39°17'4"
Elevation is 1444 feet MSL.
 
View others Airports in Nampula Province

Operational data

Special qualification required
Current time UTC:
Current local time:
Weather
METAR: FQNP 141700Z 10009KT 9999 BKN020 24/17 Q1021
TAF: TAF FQNP 141600Z 1418/1518 10007KT 9999 BKN020 TX30/1513Z TN18/1502Z BECMG 1500/1502 VRB02KT PROB30 TEMPO 1500/1506 0600 FG SCT001 BKN002 BECMG 1510/1512 10010KT BECMG 1516/1518 12004KT
View NOTAMs / SUP AIP / TFR affecting this airport [VIEW]
Communications frequencies: [VIEW]

Runways:

RWY identifierQFULength (ft)Width (ft)SurfaceLDA (ft)
0546°6562148ASP
23226°6562148ASP

Airport contact information

Address: Nampula Mozambique

Satellite view of FQNP